Aviation Digital Data Service (ADDS)

Output produced by TAFs form (0435 UTC 28 July 2017)
found at http://www.aviationweather.gov/adds/tafs/
 
KABE 272328Z 2800/2824 VRB03KT P6SM BKN035 
     FM280200 00000KT P6SM SCT150 
     FM280800 00000KT 4SM BR SCT250 
     FM281200 VRB03KT P6SM BKN070 
     FM282100 05004KT 6SM -SHRA OVC050 
     PROB30 2821/2824 4SM TS OVC025CB